Time;durP1;ratioP1;P1;durP2;ratioP2;P2;SDS_P1;SDS_P2;PMS_P1;PMS_P2;Temp;Humidity;BMP_temperature;BMP_pressure;BME280_temperature;BME280_humidity;BME280_pressure;Samples;Min_cycle;Max_cycle;Signal;HPM_P1;HPM_P2
2021/01/01 00:00:01;;;;;;;;;;;22.30;34.30;;;;;;1570084;75;823;-64
2021/01/01 00:02:02;;;;;;;;;;;22.40;34.20;;;;;;1568622;75;793;-65
2021/01/01 00:04:05;;;;;;;;;;;22.30;34.20;;;;;;1567749;75;893;-65
2021/01/01 00:06:08;;;;;;;;;;;22.30;34.20;;;;;;1577995;74;1181;-64
2021/01/01 00:08:10;;;;;;;;;;;22.30;34.30;;;;;;1573365;75;1923;-64
2021/01/01 00:10:14;;;;;;;;;;;22.30;34.30;;;;;;1567502;74;721;-64
2021/01/01 00:12:16;;;;;;;;;;;22.30;34.30;;;;;;1578447;74;1494;-64
2021/01/01 00:14:18;;;;;;;;;;;22.30;34.30;;;;;;1571694;75;778;-64
2021/01/01 00:16:19;;;;;;;;;;;22.30;34.30;;;;;;1574130;75;1142;-64
2021/01/01 00:18:21;;;;;;;;;;;22.30;34.40;;;;;;1572709;75;776;-65
2021/01/01 00:20:23;;;;;;;;;;;22.30;34.30;;;;;;1570183;74;815;-66
2021/01/01 00:22:25;;;;;;;;;;;22.30;34.20;;;;;;1579857;75;806;-65
2021/01/01 00:24:27;;;;;;;;;;;22.30;34.30;;;;;;1577570;75;779;-64
2021/01/01 00:26:29;;;;;;;;;;;22.40;34.30;;;;;;1564711;75;1141;-64
2021/01/01 00:28:31;;;;;;;;;;;22.30;34.20;;;;;;1573741;75;1946;-64
2021/01/01 00:30:33;;;;;;;;;;;22.30;34.20;;;;;;1573051;75;767;-64
2021/01/01 00:32:34;;;;;;;;;;;22.30;34.20;;;;;;1573760;74;803;-64
2021/01/01 00:34:36;;;;;;;;;;;22.30;34.20;;;;;;1571038;75;790;-64
2021/01/01 00:36:38;;;;;;;;;;;22.30;34.20;;;;;;1565970;75;1137;-64
2021/01/01 00:38:46;;;;;;;;;;;22.20;34.20;;;;;;1563003;74;733;-64
2021/01/01 00:40:45;;;;;;;;;;;22.30;34.40;;;;;;1570041;75;1591;-64
2021/01/01 00:42:47;;;;;;;;;;;22.20;34.30;;;;;;1560724;75;772;-63
2021/01/01 00:44:49;;;;;;;;;;;22.30;34.40;;;;;;1572070;74;776;-67
2021/01/01 00:46:51;;;;;;;;;;;22.20;34.20;;;;;;1580699;74;1143;-65
2021/01/01 00:48:53;;;;;;;;;;;22.20;34.80;;;;;;1581623;74;1931;-61
2021/01/01 00:50:54;;;;;;;;;;;22.20;35.50;;;;;;1589606;74;889;-64
2021/01/01 00:52:56;;;;;;;;;;;22.10;35.80;;;;;;1579337;74;812;-63
2021/01/01 00:54:58;;;;;;;;;;;22.20;35.90;;;;;;1576116;74;730;-64
2021/01/01 00:57:00;;;;;;;;;;;22.20;36.00;;;;;;1581847;74;1172;-64
2021/01/01 00:59:02;;;;;;;;;;;22.30;36.10;;;;;;1583982;74;778;-61
2021/01/01 01:01:04;;;;;;;;;;;22.30;36.10;;;;;;1581963;74;754;-61
2021/01/01 01:03:06;;;;;;;;;;;22.40;36.00;;;;;;1581838;74;717;-63
2021/01/01 01:05:08;;;;;;;;;;;22.50;36.00;;;;;;1578495;74;789;-63
2021/01/01 01:07:10;;;;;;;;;;;22.50;35.90;;;;;;1574447;74;1122;-63
2021/01/01 01:09:11;;;;;;;;;;;22.60;35.90;;;;;;1577499;74;1951;-64
2021/01/01 01:11:14;;;;;;;;;;;22.50;35.90;;;;;;1578233;74;716;-64
2021/01/01 01:13:16;;;;;;;;;;;22.60;36.00;;;;;;1576759;74;734;-63
2021/01/01 01:15:18;;;;;;;;;;;22.60;36.00;;;;;;1578114;74;1152;-62
2021/01/01 01:17:20;;;;;;;;;;;22.50;36.00;;;;;;1577544;74;804;-63
2021/01/01 01:19:22;;;;;;;;;;;22.70;36.30;;;;;;1583052;74;768;-63
2021/01/01 01:21:24;;;;;;;;;;;22.70;36.30;;;;;;1584608;74;733;-62
2021/01/01 01:23:25;;;;;;;;;;;22.50;36.50;;;;;;1575698;74;764;-63
2021/01/01 01:25:28;;;;;;;;;;;22.50;36.60;;;;;;1577240;74;1148;-65
2021/01/01 01:27:30;;;;;;;;;;;22.50;36.50;;;;;;1579777;74;798;-62
2021/01/01 01:29:31;;;;;;;;;;;22.50;36.60;;;;;;1581520;74;1926;-63
2021/01/01 01:31:33;;;;;;;;;;;22.50;36.50;;;;;;1578326;74;798;-64
2021/01/01 01:33:35;;;;;;;;;;;22.50;36.50;;;;;;1582805;74;742;-65
2021/01/01 01:35:37;;;;;;;;;;;22.50;36.50;;;;;;1574238;74;1129;-66
2021/01/01 01:37:39;;;;;;;;;;;22.50;36.70;;;;;;1567979;74;811;-64
2021/01/01 01:39:41;;;;;;;;;;;22.50;36.70;;;;;;1582099;74;748;-65
2021/01/01 01:41:43;;;;;;;;;;;22.60;37.00;;;;;;1586563;74;798;-64
2021/01/01 01:43:45;;;;;;;;;;;22.50;36.90;;;;;;1578454;74;780;-64
2021/01/01 01:45:47;;;;;;;;;;;22.50;36.70;;;;;;1577038;74;1080;-63
2021/01/01 01:47:49;;;;;;;;;;;22.50;37.00;;;;;;1583194;74;1931;-63
2021/01/01 01:49:51;;;;;;;;;;;22.50;37.00;;;;;;1567295;74;1053;-63
2021/01/01 01:51:53;;;;;;;;;;;22.60;37.00;;;;;;1573720;75;776;-64
2021/01/01 01:53:55;;;;;;;;;;;22.60;36.90;;;;;;1559857;75;757;-63
2021/01/01 01:55:57;;;;;;;;;;;22.70;37.10;;;;;;1567423;74;1173;-63
2021/01/01 01:57:58;;;;;;;;;;;22.70;37.10;;;;;;1563320;74;803;-63
2021/01/01 02:00:01;;;;;;;;;;;22.70;37.20;;;;;;1563951;74;722;-63
2021/01/01 02:02:03;;;;;;;;;;;22.70;37.10;;;;;;1571819;75;704;-62
2021/01/01 02:04:05;;;;;;;;;;;22.70;37.10;;;;;;1556227;74;742;-63
2021/01/01 02:06:07;;;;;;;;;;;22.80;37.20;;;;;;1557823;74;1131;-63
2021/01/01 02:08:08;;;;;;;;;;;22.70;37.30;;;;;;1561219;75;1938;-63
2021/01/01 02:10:11;;;;;;;;;;;22.70;37.40;;;;;;1562708;75;749;-63
2021/01/01 02:12:14;;;;;;;;;;;22.70;37.50;;;;;;1556917;74;797;-62
2021/01/01 02:14:16;;;;;;;;;;;22.60;37.70;;;;;;1561981;75;1061;-66
2021/01/01 02:16:18;;;;;;;;;;;22.60;37.80;;;;;;1570690;75;1144;-65
2021/01/01 02:18:38;;;;;;;;;;;22.70;37.80;;;;;;1570391;75;715;-62
2021/01/01 02:20:40;;;;;;;;;;;22.70;37.60;;;;;;1559437;74;778;-66
2021/01/01 02:22:42;;;;;;;;;;;22.80;37.60;;;;;;1562449;75;785;-65
2021/01/01 02:24:44;;;;;;;;;;;22.80;37.80;;;;;;1570855;75;773;-64
2021/01/01 02:26:46;;;;;;;;;;;22.80;37.90;;;;;;1569500;74;1143;-62
2021/01/01 02:28:47;;;;;;;;;;;22.80;37.80;;;;;;1569528;75;1914;-62
2021/01/01 02:30:49;;;;;;;;;;;22.90;38.00;;;;;;1561694;74;799;-61
2021/01/01 02:32:51;;;;;;;;;;;22.80;38.00;;;;;;1556393;75;759;-62
2021/01/01 02:34:53;;;;;;;;;;;22.80;38.10;;;;;;1566825;74;785;-63
2021/01/01 02:36:55;;;;;;;;;;;22.80;38.00;;;;;;1560772;75;1117;-63
2021/01/01 02:38:57;;;;;;;;;;;22.90;38.10;;;;;;1561097;75;726;-63
2021/01/01 02:40:59;;;;;;;;;;;22.90;38.00;;;;;;1568687;74;716;-62
2021/01/01 02:43:01;;;;;;;;;;;22.90;38.10;;;;;;1556117;75;813;-66
2021/01/01 02:45:03;;;;;;;;;;;22.90;38.50;;;;;;1576725;75;821;-66
2021/01/01 02:47:05;;;;;;;;;;;22.80;38.50;;;;;;1565416;75;1128;-64
2021/01/01 02:49:07;;;;;;;;;;;22.70;38.70;;;;;;1568646;75;1931;-65
2021/01/01 02:51:09;;;;;;;;;;;22.70;38.80;;;;;;1572575;75;1123;-64
2021/01/01 02:53:11;;;;;;;;;;;22.70;38.70;;;;;;1560383;75;748;-62
2021/01/01 02:55:12;;;;;;;;;;;22.70;38.70;;;;;;1563118;75;898;-64
2021/01/01 02:57:14;;;;;;;;;;;22.70;38.70;;;;;;1556768;74;1164;-64
2021/01/01 02:59:16;;;;;;;;;;;22.70;38.70;;;;;;1575505;75;901;-67
2021/01/01 03:01:21;;;;;;;;;;;22.60;38.80;;;;;;1535106;76;786;-62
2021/01/01 03:03:23;;;;;;;;;;;22.70;38.90;;;;;;1523304;77;761;-63
2021/01/01 03:05:25;;;;;;;;;;;22.70;39.20;;;;;;1522257;77;1166;-63
2021/01/01 03:07:27;;;;;;;;;;;22.70;39.20;;;;;;1525353;77;793;-63
2021/01/01 03:09:28;;;;;;;;;;;22.70;39.10;;;;;;1530920;77;1948;-62
2021/01/01 03:11:30;;;;;;;;;;;22.70;39.10;;;;;;1530910;77;774;-62
2021/01/01 03:13:32;;;;;;;;;;;22.60;39.10;;;;;;1537883;77;766;-62
2021/01/01 03:15:34;;;;;;;;;;;22.60;39.00;;;;;;1538477;76;1141;-61
2021/01/01 03:17:36;;;;;;;;;;;22.60;39.10;;;;;;1538193;77;766;-62
2021/01/01 03:19:38;;;;;;;;;;;22.60;39.10;;;;;;1535274;77;735;-63
2021/01/01 03:21:40;;;;;;;;;;;22.60;39.20;;;;;;1532935;77;772;-65
2021/01/01 03:23:41;;;;;;;;;;;22.60;39.20;;;;;;1529625;77;739;-66
2021/01/01 03:25:43;;;;;;;;;;;22.60;39.10;;;;;;1530711;77;1156;-64
2021/01/01 03:27:45;;;;;;;;;;;22.60;39.00;;;;;;1532358;77;727;-63
2021/01/01 03:29:47;;;;;;;;;;;22.60;38.90;;;;;;1538493;77;1927;-67
2021/01/01 03:31:49;;;;;;;;;;;22.70;38.90;;;;;;1538504;77;813;-63
2021/01/01 03:33:51;;;;;;;;;;;22.80;38.90;;;;;;1499591;78;768;-63
2021/01/01 03:35:53;;;;;;;;;;;22.80;38.80;;;;;;1512204;77;1126;-64
2021/01/01 03:37:55;;;;;;;;;;;22.80;38.70;;;;;;1533947;76;772;-63
2021/01/01 03:39:57;;;;;;;;;;;22.80;38.80;;;;;;1540842;76;899;-67
2021/01/01 03:41:58;;;;;;;;;;;22.80;38.80;;;;;;1537050;77;684;-64
2021/01/01 03:44:00;;;;;;;;;;;22.80;38.90;;;;;;1534958;77;1074;-64
2021/01/01 03:46:02;;;;;;;;;;;22.80;38.80;;;;;;1534151;77;1163;-66
2021/01/01 03:48:04;;;;;;;;;;;22.90;38.90;;;;;;1539071;77;770;-65
2021/01/01 03:50:07;;;;;;;;;;;22.90;38.90;;;;;;1535588;77;1932;-67
2021/01/01 03:52:09;;;;;;;;;;;22.90;38.80;;;;;;1532947;76;1093;-63
2021/01/01 03:54:11;;;;;;;;;;;22.80;38.70;;;;;;1534308;77;890;-64
2021/01/01 03:56:13;;;;;;;;;;;22.80;38.70;;;;;;1538787;77;1186;-64
2021/01/01 03:58:15;;;;;;;;;;;22.90;38.90;;;;;;1536810;77;761;-64
2021/01/01 04:00:17;;;;;;;;;;;23.00;38.90;;;;;;1536983;77;790;-65
2021/01/01 04:02:19;;;;;;;;;;;22.90;39.00;;;;;;1529653;76;743;-63
2021/01/01 04:04:21;;;;;;;;;;;22.90;39.00;;;;;;1534346;77;782;-64
2021/01/01 04:06:23;;;;;;;;;;;23.00;38.90;;;;;;1531074;76;1143;-65
2021/01/01 04:08:24;;;;;;;;;;;23.00;38.80;;;;;;1504976;77;767;-63
2021/01/01 04:10:26;;;;;;;;;;;23.00;38.70;;;;;;1524373;77;1965;-64
2021/01/01 04:12:28;;;;;;;;;;;23.00;38.70;;;;;;1527070;77;722;-63
2021/01/01 04:14:30;;;;;;;;;;;23.00;38.60;;;;;;1523619;76;695;-63
2021/01/01 04:16:32;;;;;;;;;;;23.10;38.60;;;;;;1516965;77;1146;-63
2021/01/01 04:18:34;;;;;;;;;;;23.10;38.80;;;;;;1521332;76;779;-64
2021/01/01 04:20:36;;;;;;;;;;;23.10;38.80;;;;;;1532327;77;730;-62
2021/01/01 04:22:38;;;;;;;;;;;23.00;38.60;;;;;;1530363;77;818;-61
2021/01/01 04:24:39;;;;;;;;;;;23.10;38.60;;;;;;1536184;77;718;-61
2021/01/01 04:26:41;;;;;;;;;;;23.10;38.70;;;;;;1532206;76;1136;-62
2021/01/01 04:28:43;;;;;;;;;;;23.00;38.50;;;;;;1540368;76;1937;-64
2021/01/01 04:30:45;;;;;;;;;;;23.00;38.50;;;;;;1532624;77;794;-62
2021/01/01 04:32:47;;;;;;;;;;;23.00;38.60;;;;;;1532844;76;754;-66
2021/01/01 04:34:49;;;;;;;;;;;23.00;38.80;;;;;;1538015;77;732;-63
2021/01/01 04:36:51;;;;;;;;;;;23.10;39.00;;;;;;1536806;76;1130;-63
2021/01/01 04:38:53;;;;;;;;;;;22.90;38.90;;;;;;1537627;77;746;-63
2021/01/01 04:40:54;;;;;;;;;;;22.90;38.90;;;;;;1532859;77;872;-63
2021/01/01 04:42:56;;;;;;;;;;;22.80;38.80;;;;;;1532073;77;773;-62
2021/01/01 04:44:58;;;;;;;;;;;22.80;38.80;;;;;;1538229;77;779;-63
2021/01/01 04:47:04;;;;;;;;;;;22.80;38.70;;;;;;1536766;76;1130;-62
2021/01/01 04:49:04;;;;;;;;;;;22.80;38.80;;;;;;1533422;76;1929;-63
2021/01/01 04:51:06;;;;;;;;;;;22.80;38.70;;;;;;1540027;76;1020;-64
2021/01/01 04:53:09;;;;;;;;;;;22.80;38.80;;;;;;1566579;74;842;-65
2021/01/01 04:55:11;;;;;;;;;;;22.90;38.70;;;;;;1565348;74;785;-62
2021/01/01 04:57:13;;;;;;;;;;;22.90;38.50;;;;;;1579762;74;1175;-62
2021/01/01 04:59:18;;;;;;;;;;;23.00;38.40;;;;;;1577519;74;777;-62
2021/01/01 05:01:22;;;;;;;;;;;22.90;38.30;;;;;;1574373;74;799;-63
2021/01/01 05:03:23;;;;;;;;;;;23.00;38.30;;;;;;1568018;74;1584;-62
2021/01/01 05:05:29;;;;;;;;;;;22.90;38.30;;;;;;1563248;74;1159;-64
2021/01/01 05:07:30;;;;;;;;;;;22.90;38.30;;;;;;1569446;74;744;-63
2021/01/01 05:09:32;;;;;;;;;;;23.00;38.40;;;;;;1567843;74;1931;-64
2021/01/01 05:11:34;;;;;;;;;;;22.90;38.40;;;;;;1576347;74;725;-65
2021/01/01 05:13:36;;;;;;;;;;;22.90;38.50;;;;;;1572072;74;735;-65
2021/01/01 05:15:38;;;;;;;;;;;22.90;38.40;;;;;;1571746;74;1070;-64
2021/01/01 05:17:40;;;;;;;;;;;22.90;38.50;;;;;;1574705;74;777;-62
2021/01/01 05:19:42;;;;;;;;;;;22.90;38.40;;;;;;1570148;74;826;-66
2021/01/01 05:21:44;;;;;;;;;;;22.90;38.60;;;;;;1579071;74;762;-62
2021/01/01 05:23:46;;;;;;;;;;;22.90;38.60;;;;;;1572320;74;754;-62
2021/01/01 05:25:48;;;;;;;;;;;22.90;38.50;;;;;;1570938;74;1148;-66
2021/01/01 05:27:50;;;;;;;;;;;22.90;38.40;;;;;;1568389;74;772;-62
2021/01/01 05:29:54;;;;;;;;;;;23.00;38.40;;;;;;1572799;74;1942;-61
2021/01/01 05:31:55;;;;;;;;;;;23.00;38.40;;;;;;1577934;74;1426;-61
2021/01/01 05:33:59;;;;;;;;;;;22.90;38.40;;;;;;1565020;74;783;-62
2021/01/01 05:36:10;;;;;;;;;;;22.90;38.40;;;;;;1575549;74;1152;-64
2021/01/01 05:38:16;;;;;;;;;;;22.90;38.40;;;;;;1562849;74;744;-63
2021/01/01 05:40:18;;;;;;;;;;;22.90;38.40;;;;;;1575762;74;737;-63
2021/01/01 05:42:21;;;;;;;;;;;23.10;38.40;;;;;;1573586;74;690;-62
2021/01/01 05:44:30;;;;;;;;;;;22.90;38.20;;;;;;1574076;74;692;-61
2021/01/01 05:46:32;;;;;;;;;;;23.00;38.30;;;;;;1574483;74;1165;-62
2021/01/01 05:48:33;;;;;;;;;;;23.00;38.30;;;;;;1570539;74;691;-64
2021/01/01 05:50:36;;;;;;;;;;;23.00;38.40;;;;;;1571288;74;1953;-63
2021/01/01 05:52:38;;;;;;;;;;;23.00;38.60;;;;;;1568167;74;1093;-63
2021/01/01 05:54:41;;;;;;;;;;;23.00;38.50;;;;;;1581438;74;609;-63
2021/01/01 05:56:43;;;;;;;;;;;23.00;38.50;;;;;;1577384;74;1852;-63
2021/01/01 05:58:45;;;;;;;;;;;23.00;38.50;;;;;;1571045;74;728;-62
2021/01/01 06:00:49;;;;;;;;;;;23.10;38.50;;;;;;1574954;74;768;-62
2021/01/01 06:02:51;;;;;;;;;;;23.10;38.30;;;;;;1573964;74;1831;-62
2021/01/01 06:04:53;;;;;;;;;;;23.10;38.20;;;;;;1551202;76;743;-62
2021/01/01 06:06:55;;;;;;;;;;;23.10;38.20;;;;;;1522690;77;1139;-62
2021/01/01 06:08:56;;;;;;;;;;;23.20;38.10;;;;;;1558924;76;751;-62
2021/01/01 06:11:02;;;;;;;;;;;23.20;38.00;;;;;;1554690;76;1946;-62
2021/01/01 06:13:04;;;;;;;;;;;23.20;37.90;;;;;;1551752;76;820;-62
2021/01/01 06:15:07;;;;;;;;;;;23.20;37.90;;;;;;1514778;78;668;-63
2021/01/01 06:17:13;;;;;;;;;;;23.20;37.90;;;;;;1555706;76;1122;-63
2021/01/01 06:19:15;;;;;;;;;;;23.20;38.00;;;;;;1549436;76;717;-63
2021/01/01 06:21:19;;;;;;;;;;;23.20;37.90;;;;;;1550317;76;775;-62
2021/01/01 06:23:20;;;;;;;;;;;23.20;37.80;;;;;;1518517;77;1909;-63
2021/01/01 06:25:22;;;;;;;;;;;23.20;37.80;;;;;;1535389;76;1176;-62
2021/01/01 06:27:25;;;;;;;;;;;23.20;37.70;;;;;;1554505;76;777;-63
2021/01/01 06:29:27;;;;;;;;;;;23.20;37.60;;;;;;1557501;76;1924;-62
2021/01/01 06:31:29;;;;;;;;;;;23.20;37.70;;;;;;1554255;76;785;-61
2021/01/01 06:33:31;;;;;;;;;;;23.30;37.70;;;;;;1540577;76;920;-62
2021/01/01 06:35:33;;;;;;;;;;;23.20;37.60;;;;;;1518623;77;1156;-62
2021/01/01 06:37:36;;;;;;;;;;;23.20;37.60;;;;;;1508169;77;1306;-63
2021/01/01 06:39:38;;;;;;;;;;;23.20;37.60;;;;;;1568169;74;838;-63
2021/01/01 06:41:44;;;;;;;;;;;23.20;37.70;;;;;;1572252;74;747;-64
2021/01/01 06:43:50;;;;;;;;;;;23.20;37.70;;;;;;1568790;74;985;-63
2021/01/01 06:45:52;;;;;;;;;;;23.10;37.80;;;;;;1584215;74;1132;-63
2021/01/01 06:47:54;;;;;;;;;;;23.10;37.80;;;;;;1558830;76;990;-63
2021/01/01 06:49:56;;;;;;;;;;;23.20;37.80;;;;;;1591629;74;1921;-63
2021/01/01 06:52:13;;;;;;;;;;;23.10;37.90;;;;;;1583411;74;823;-63
2021/01/01 06:54:15;;;;;;;;;;;23.20;37.80;;;;;;1579345;74;860;-63
2021/01/01 06:56:20;;;;;;;;;;;23.20;37.80;;;;;;1569432;74;1186;-63
2021/01/01 06:58:25;;;;;;;;;;;23.20;37.60;;;;;;1580430;74;833;-63
2021/01/01 07:00:29;;;;;;;;;;;23.30;37.60;;;;;;1586629;74;952;-63
2021/01/01 07:02:31;;;;;;;;;;;23.30;37.60;;;;;;1561929;74;1826;-65
2021/01/01 07:04:34;;;;;;;;;;;23.30;37.60;;;;;;1573346;74;798;-64
2021/01/01 07:06:36;;;;;;;;;;;23.20;37.70;;;;;;1570868;74;1458;-64
2021/01/01 07:08:42;;;;;;;;;;;23.20;37.70;;;;;;1573949;74;726;-63
2021/01/01 07:10:44;;;;;;;;;;;23.20;37.70;;;;;;1582517;74;1937;-63
2021/01/01 07:12:46;;;;;;;;;;;23.20;37.80;;;;;;1575726;74;738;-63
2021/01/01 07:14:48;;;;;;;;;;;23.20;37.80;;;;;;1583805;74;739;-64
2021/01/01 07:16:54;;;;;;;;;;;23.20;37.80;;;;;;1583037;74;1089;-63
2021/01/01 07:18:54;;;;;;;;;;;23.10;37.80;;;;;;1544867;76;1193;-64
2021/01/01 07:20:57;;;;;;;;;;;23.10;37.80;;;;;;1583460;74;766;-64
2021/01/01 07:22:59;;;;;;;;;;;23.20;37.80;;;;;;1569897;74;1843;-62
2021/01/01 07:25:01;;;;;;;;;;;23.20;37.80;;;;;;1574746;74;734;-62
2021/01/01 07:27:03;;;;;;;;;;;23.10;37.90;;;;;;1576321;74;1094;-62
2021/01/01 07:29:05;;;;;;;;;;;23.20;37.90;;;;;;1572209;74;812;-64
2021/01/01 07:31:07;;;;;;;;;;;23.20;37.90;;;;;;1572966;74;1942;-62
2021/01/01 07:33:09;;;;;;;;;;;23.20;37.90;;;;;;1569620;74;965;-62
2021/01/01 07:35:11;;;;;;;;;;;23.10;37.90;;;;;;1539265;76;820;-62
2021/01/01 07:37:13;;;;;;;;;;;23.20;37.80;;;;;;1581825;74;1104;-63
2021/01/01 07:39:15;;;;;;;;;;;23.20;37.80;;;;;;1568919;74;851;-63
2021/01/01 07:41:17;;;;;;;;;;;23.20;37.80;;;;;;1578288;74;724;-62
2021/01/01 07:43:19;;;;;;;;;;;23.20;37.80;;;;;;1576573;74;777;-62
2021/01/01 07:45:21;;;;;;;;;;;23.20;37.80;;;;;;1574689;74;1152;-65
2021/01/01 07:47:23;;;;;;;;;;;23.20;37.80;;;;;;1588078;74;797;-65
2021/01/01 07:49:31;;;;;;;;;;;23.20;37.70;;;;;;1534044;76;735;-63
2021/01/01 07:51:33;;;;;;;;;;;23.30;38.10;;;;;;1509631;77;1939;-64
2021/01/01 07:53:35;;;;;;;;;;;23.20;37.90;;;;;;1538194;76;1065;-63
2021/01/01 07:55:39;;;;;;;;;;;23.30;38.10;;;;;;1580056;75;1192;-63
2021/01/01 07:57:41;;;;;;;;;;;23.30;38.00;;;;;;1556934;75;753;-64
2021/01/01 07:59:43;;;;;;;;;;;23.30;38.00;;;;;;1570809;75;769;-63
2021/01/01 08:01:45;;;;;;;;;;;23.40;37.80;;;;;;1564136;75;770;-64
2021/01/01 08:03:47;;;;;;;;;;;23.40;37.70;;;;;;1562421;75;788;-63
2021/01/01 08:05:48;;;;;;;;;;;23.40;37.80;;;;;;1576860;75;1137;-66
2021/01/01 08:07:50;;;;;;;;;;;23.40;37.70;;;;;;1557747;74;734;-66
2021/01/01 08:09:52;;;;;;;;;;;23.40;37.60;;;;;;1555853;75;688;-66
2021/01/01 08:11:56;;;;;;;;;;;23.40;37.60;;;;;;1555761;75;1939;-65
2021/01/01 08:13:57;;;;;;;;;;;23.50;37.80;;;;;;1567004;75;1813;-65
2021/01/01 08:16:01;;;;;;;;;;;23.40;37.50;;;;;;1559312;75;1134;-65
2021/01/01 08:18:11;;;;;;;;;;;23.40;37.60;;;;;;1555601;75;1868;-66
2021/01/01 08:20:16;;;;;;;;;;;23.40;37.60;;;;;;1557595;75;775;-66
2021/01/01 08:22:19;;;;;;;;;;;23.30;37.60;;;;;;1555828;75;820;-66
2021/01/01 08:24:21;;;;;;;;;;;23.40;37.50;;;;;;1557934;75;821;-66
2021/01/01 08:26:23;;;;;;;;;;;23.40;37.60;;;;;;1567684;74;1145;-65
2021/01/01 08:28:25;;;;;;;;;;;23.40;37.50;;;;;;1561746;75;684;-66
2021/01/01 08:30:27;;;;;;;;;;;23.30;37.50;;;;;;1560170;75;1940;-66
2021/01/01 08:32:29;;;;;;;;;;;23.40;37.50;;;;;;1572542;74;816;-67
2021/01/01 08:34:31;;;;;;;;;;;23.40;37.60;;;;;;1580984;74;803;-65
2021/01/01 08:36:33;;;;;;;;;;;23.40;37.50;;;;;;1566282;75;1123;-67
2021/01/01 08:38:36;;;;;;;;;;;23.40;37.50;;;;;;1564109;75;792;-65
2021/01/01 08:40:37;;;;;;;;;;;23.40;37.50;;;;;;1572573;75;803;-66
2021/01/01 08:42:40;;;;;;;;;;;23.40;37.40;;;;;;1573360;75;755;-64
2021/01/01 08:44:42;;;;;;;;;;;23.40;37.40;;;;;;1557017;74;901;-64
2021/01/01 08:46:44;;;;;;;;;;;23.40;37.60;;;;;;1558191;75;1087;-65
2021/01/01 08:48:46;;;;;;;;;;;23.40;37.80;;;;;;1560712;75;728;-65
2021/01/01 08:50:48;;;;;;;;;;;23.40;37.70;;;;;;1560687;75;1952;-68
2021/01/01 08:52:51;;;;;;;;;;;23.40;37.70;;;;;;1561043;75;731;-65
2021/01/01 08:54:53;;;;;;;;;;;23.50;37.80;;;;;;1563376;74;1792;-66
2021/01/01 08:56:58;;;;;;;;;;;23.50;37.80;;;;;;1570553;74;1219;-66
2021/01/01 08:59:10;;;;;;;;;;;23.40;37.70;;;;;;1579125;74;758;-64
2021/01/01 09:01:17;;;;;;;;;;;23.50;37.70;;;;;;1568745;74;817;-67
2021/01/01 09:03:22;;;;;;;;;;;23.40;37.60;;;;;;1566348;74;752;-64
2021/01/01 09:05:25;;;;;;;;;;;23.40;37.60;;;;;;1574211;74;1130;-64
2021/01/01 09:07:27;;;;;;;;;;;23.50;37.70;;;;;;1569601;74;602;-63
2021/01/01 09:09:29;;;;;;;;;;;23.40;37.50;;;;;;1572406;74;691;-64
2021/01/01 09:11:31;;;;;;;;;;;23.40;37.70;;;;;;1564443;74;1951;-63
2021/01/01 09:13:33;;;;;;;;;;;23.40;37.60;;;;;;1569548;74;750;-64
2021/01/01 09:15:35;;;;;;;;;;;23.40;37.70;;;;;;1565207;74;1149;-63
2021/01/01 09:17:36;;;;;;;;;;;23.50;37.90;;;;;;1565507;74;702;-63
2021/01/01 09:19:38;;;;;;;;;;;23.40;37.80;;;;;;1563244;74;790;-63
2021/01/01 09:21:40;;;;;;;;;;;23.40;37.90;;;;;;1572691;74;715;-62
2021/01/01 09:23:44;;;;;;;;;;;23.40;38.00;;;;;;1566524;74;743;-63
2021/01/01 09:25:46;;;;;;;;;;;23.40;37.90;;;;;;1574436;74;1694;-61
2021/01/01 09:27:47;;;;;;;;;;;23.30;38.10;;;;;;1579401;74;944;-61
2021/01/01 09:29:49;;;;;;;;;;;23.30;38.10;;;;;;1571803;74;861;-62
2021/01/01 09:31:51;;;;;;;;;;;23.30;38.10;;;;;;1566957;74;1928;-62
2021/01/01 09:34:00;;;;;;;;;;;23.30;38.10;;;;;;1582414;74;708;-62
2021/01/01 09:36:02;;;;;;;;;;;23.30;37.90;;;;;;1566846;74;1149;-62
2021/01/01 09:38:04;;;;;;;;;;;23.30;38.00;;;;;;1573290;74;793;-62
2021/01/01 09:40:06;;;;;;;;;;;23.30;37.90;;;;;;1569171;74;775;-62
2021/01/01 09:42:08;;;;;;;;;;;23.40;37.90;;;;;;1571052;74;798;-62
2021/01/01 09:44:10;;;;;;;;;;;23.30;37.70;;;;;;1569023;74;816;-61
2021/01/01 09:46:12;;;;;;;;;;;23.30;37.80;;;;;;1572078;74;1153;-62
2021/01/01 09:48:13;;;;;;;;;;;23.30;37.60;;;;;;1574929;74;791;-63
2021/01/01 09:50:15;;;;;;;;;;;23.40;37.60;;;;;;1571330;74;777;-62
2021/01/01 09:52:17;;;;;;;;;;;23.30;37.60;;;;;;1577967;74;1915;-62
2021/01/01 09:54:19;;;;;;;;;;;23.40;37.60;;;;;;1565525;74;1036;-62
2021/01/01 09:56:21;;;;;;;;;;;23.40;37.30;;;;;;1559744;74;1240;-62
2021/01/01 09:58:23;;;;;;;;;;;23.30;37.40;;;;;;1557888;75;787;-64
2021/01/01 10:00:25;;;;;;;;;;;23.30;37.30;;;;;;1564478;75;764;-62
2021/01/01 10:02:27;;;;;;;;;;;23.40;37.30;;;;;;1561451;75;726;-64
2021/01/01 10:04:28;;;;;;;;;;;23.40;37.30;;;;;;1567714;74;769;-64
2021/01/01 10:06:30;;;;;;;;;;;23.40;37.30;;;;;;1556155;75;1146;-64
2021/01/01 10:08:32;;;;;;;;;;;23.50;37.10;;;;;;1564357;75;816;-64
2021/01/01 10:10:34;;;;;;;;;;;23.40;36.70;;;;;;1563165;75;908;-64
2021/01/01 10:12:36;;;;;;;;;;;23.50;36.60;;;;;;1559446;75;1923;-65
2021/01/01 10:14:38;;;;;;;;;;;23.50;36.50;;;;;;1566357;75;800;-64
2021/01/01 10:16:40;;;;;;;;;;;23.50;36.30;;;;;;1560276;75;1149;-60
2021/01/01 10:18:42;;;;;;;;;;;23.50;36.30;;;;;;1566272;74;885;-64
2021/01/01 10:20:43;;;;;;;;;;;23.40;36.20;;;;;;1558689;75;741;-62
2021/01/01 10:22:45;;;;;;;;;;;23.50;36.30;;;;;;1572215;75;741;-66
2021/01/01 10:24:47;;;;;;;;;;;23.40;36.20;;;;;;1561437;75;792;-63
2021/01/01 10:26:53;;;;;;;;;;;23.50;36.30;;;;;;1563003;74;1149;-65
2021/01/01 10:28:55;;;;;;;;;;;23.50;36.30;;;;;;1551877;74;710;-64
2021/01/01 10:30:58;;;;;;;;;;;23.50;36.20;;;;;;1559215;75;1909;-64
2021/01/01 10:33:00;;;;;;;;;;;23.40;36.00;;;;;;1575982;74;773;-64
2021/01/01 10:35:01;;;;;;;;;;;23.40;36.00;;;;;;1568345;75;1106;-62
2021/01/01 10:37:04;;;;;;;;;;;23.40;36.20;;;;;;1565824;75;1027;-65
2021/01/01 10:39:06;;;;;;;;;;;23.50;36.30;;;;;;1571666;75;717;-64
2021/01/01 10:41:09;;;;;;;;;;;23.60;36.30;;;;;;1563732;75;792;-64
2021/01/01 10:43:11;;;;;;;;;;;23.80;36.70;;;;;;1558304;75;2017;-65
2021/01/01 10:45:13;;;;;;;;;;;23.90;36.60;;;;;;1573995;75;759;-63
2021/01/01 10:47:15;;;;;;;;;;;23.90;36.40;;;;;;1559154;75;1109;-63
2021/01/01 10:49:17;;;;;;;;;;;24.00;36.30;;;;;;1567305;74;831;-65
2021/01/01 10:51:25;;;;;;;;;;;24.00;36.00;;;;;;1564954;75;1962;-64
2021/01/01 10:53:27;;;;;;;;;;;24.00;36.00;;;;;;1571488;75;750;-62
2021/01/01 10:55:31;;;;;;;;;;;24.00;35.90;;;;;;1565089;74;1165;-63
2021/01/01 10:57:32;;;;;;;;;;;24.10;35.30;;;;;;1575043;74;1683;-64
2021/01/01 10:59:34;;;;;;;;;;;24.10;35.40;;;;;;1583476;74;814;-64
2021/01/01 11:01:36;;;;;;;;;;;24.10;34.70;;;;;;1569993;74;784;-69
2021/01/01 11:03:38;;;;;;;;;;;24.10;34.70;;;;;;1581084;74;801;-64
2021/01/01 11:05:40;;;;;;;;;;;24.10;34.90;;;;;;1574637;74;1113;-63
2021/01/01 11:07:43;;;;;;;;;;;24.20;33.90;;;;;;1557917;76;1252;-61
2021/01/01 11:09:45;;;;;;;;;;;24.10;33.60;;;;;;1572371;74;732;-64
2021/01/01 11:11:48;;;;;;;;;;;23.90;32.40;;;;;;1578362;74;1946;-62
2021/01/01 11:14:45;;;;;;;;;;;23.90;31.90;;;;;;1581179;74;786;-65
2021/01/01 12:25:37;;;;;;;;;;;22.30;28.30;;;;;;1580906;74;1154;-68
2021/01/01 12:27:39;;;;;;;;;;;22.30;28.30;;;;;;1581226;74;758;-67
2021/01/01 12:29:41;;;;;;;;;;;22.30;28.20;;;;;;1575982;74;757;-63
2021/01/01 12:31:43;;;;;;;;;;;22.30;28.00;;;;;;1581828;74;1927;-63
2021/01/01 12:33:45;;;;;;;;;;;22.30;28.20;;;;;;1571877;74;782;-64
2021/01/01 12:35:47;;;;;;;;;;;22.20;28.00;;;;;;1569758;74;1152;-65
2021/01/01 12:37:50;;;;;;;;;;;22.20;27.90;;;;;;1577048;74;739;-66
2021/01/01 12:39:52;;;;;;;;;;;22.20;27.90;;;;;;1573567;74;2058;-63
2021/01/01 12:41:54;;;;;;;;;;;22.20;28.00;;;;;;1569672;74;808;-65
2021/01/01 12:43:56;;;;;;;;;;;22.10;28.00;;;;;;1573515;74;772;-63
2021/01/01 12:45:58;;;;;;;;;;;22.20;28.20;;;;;;1574283;74;1125;-63
2021/01/01 12:48:00;;;;;;;;;;;22.10;28.20;;;;;;1577945;74;838;-65
2021/01/01 12:50:02;;;;;;;;;;;22.10;28.00;;;;;;1580718;74;724;-66
2021/01/01 12:52:03;;;;;;;;;;;22.10;27.80;;;;;;1585287;74;1926;-63
2021/01/01 12:54:05;;;;;;;;;;;22.00;27.80;;;;;;1573039;74;747;-64
2021/01/01 12:56:08;;;;;;;;;;;22.10;28.30;;;;;;1575216;74;1147;-65
2021/01/01 12:58:10;;;;;;;;;;;22.00;28.20;;;;;;1557005;74;686;-63
2021/01/01 13:00:12;;;;;;;;;;;22.10;28.40;;;;;;1566598;75;790;-63
2021/01/01 13:02:14;;;;;;;;;;;22.10;28.50;;;;;;1566493;74;699;-64
2021/01/01 13:04:16;;;;;;;;;;;22.00;28.30;;;;;;1565070;74;699;-66
2021/01/01 13:06:18;;;;;;;;;;;22.00;28.30;;;;;;1558571;74;1156;-65
2021/01/01 13:08:20;;;;;;;;;;;22.00;28.10;;;;;;1560679;74;892;-63
2021/01/01 13:10:21;;;;;;;;;;;22.00;28.30;;;;;;1558723;75;771;-67
2021/01/01 13:12:23;;;;;;;;;;;22.00;28.40;;;;;;1561756;74;1947;-68
2021/01/01 13:14:25;;;;;;;;;;;22.10;28.60;;;;;;1564818;74;820;-63
2021/01/01 13:16:27;;;;;;;;;;;22.00;28.40;;;;;;1557082;74;1145;-64
2021/01/01 13:18:31;;;;;;;;;;;22.00;28.10;;;;;;1569800;74;800;-63